createdAt,value
2022-09-20T00:00:06.845Z,10.63
2022-09-20T00:02:55.362Z,10.59
2022-09-20T00:05:23.716Z,10.55
2022-09-20T00:07:51.966Z,10.52
2022-09-20T00:10:22.648Z,10.49
2022-09-20T00:12:51.372Z,10.47
2022-09-20T00:15:19.604Z,10.46
2022-09-20T00:17:48.094Z,10.43
2022-09-20T00:20:17.215Z,10.39
2022-09-20T00:22:45.464Z,10.35
2022-09-20T00:25:13.740Z,10.31
2022-09-20T00:27:42.426Z,10.28
2022-09-20T00:30:11.416Z,10.24
2022-09-20T00:32:40.921Z,10.22
2022-09-20T00:35:12.784Z,10.19
2022-09-20T00:37:42.712Z,10.17
2022-09-20T00:40:16.004Z,10.15
2022-09-20T00:42:44.499Z,10.13
2022-09-20T00:45:18.586Z,10.09
2022-09-20T00:47:54.950Z,10.08
2022-09-20T00:50:33.934Z,10.05
2022-09-20T00:53:29.798Z,10.01
2022-09-20T00:56:06.681Z,9.97
2022-09-20T00:58:49.772Z,9.94
2022-09-20T01:01:18.687Z,9.90
2022-09-20T01:03:49.051Z,9.89
2022-09-20T01:06:18.137Z,9.86
2022-09-20T01:08:51.592Z,9.83
2022-09-20T01:11:20.028Z,9.80
2022-09-20T01:13:48.675Z,9.79
2022-09-20T01:16:19.419Z,9.76
2022-09-20T01:18:49.454Z,9.73
2022-09-20T01:21:19.543Z,9.68
2022-09-20T01:24:05.208Z,9.66
2022-09-20T01:27:06.072Z,9.63
2022-09-20T01:29:39.142Z,9.64
2022-09-20T01:32:13.758Z,9.62
2022-09-20T01:34:48.507Z,9.62
2022-09-20T01:37:36.899Z,9.61
2022-09-20T01:40:48.500Z,9.59
2022-09-20T01:43:30.539Z,9.58
2022-09-20T01:46:05.058Z,9.57
2022-09-20T01:48:38.962Z,9.54
2022-09-20T01:51:35.753Z,9.52
2022-09-20T01:54:28.776Z,9.49
2022-09-20T01:57:17.638Z,9.47
2022-09-20T02:00:07.725Z,9.44
2022-09-20T02:02:48.086Z,9.43
2022-09-20T02:05:43.530Z,9.42
2022-09-20T02:08:49.117Z,9.41
2022-09-20T02:11:23.516Z,9.40
2022-09-20T02:14:26.351Z,9.38
2022-09-20T02:17:02.134Z,9.36
2022-09-20T02:19:53.775Z,9.33
2022-09-20T02:22:43.946Z,9.31
2022-09-20T02:25:38.510Z,9.30
2022-09-20T02:28:26.035Z,9.28
2022-09-20T02:31:07.344Z,9.27
2022-09-20T02:33:42.760Z,9.24
2022-09-20T02:36:37.457Z,9.24
2022-09-20T02:39:28.344Z,9.24
2022-09-20T02:42:16.335Z,9.23
2022-09-20T02:45:01.725Z,9.22
2022-09-20T02:47:35.856Z,9.20
2022-09-20T02:50:23.402Z,9.17
2022-09-20T02:53:26.892Z,9.17
2022-09-20T02:56:02.249Z,9.16
2022-09-20T02:58:41.597Z,9.18
2022-09-20T03:01:43.979Z,9.18
2022-09-20T03:04:39.797Z,9.19
2022-09-20T03:07:10.938Z,9.19
2022-09-20T03:09:55.700Z,9.20
2022-09-20T03:12:48.908Z,9.18
2022-09-20T03:15:47.875Z,9.15
2022-09-20T03:18:20.330Z,9.14
2022-09-20T03:21:08.612Z,9.14
2022-09-20T03:24:09.414Z,9.12
2022-09-20T03:26:56.652Z,9.11
2022-09-20T03:29:43.498Z,9.08
2022-09-20T03:32:42.471Z,9.08
2022-09-20T03:35:19.370Z,9.06
2022-09-20T03:38:02.782Z,9.03
2022-09-20T03:40:31.297Z,9.01
2022-09-20T03:43:13.961Z,8.97
2022-09-20T03:46:03.636Z,8.96
2022-09-20T03:48:55.861Z,8.93
2022-09-20T03:51:45.668Z,8.92
2022-09-20T03:54:17.460Z,8.87
2022-09-20T03:57:04.722Z,8.84
2022-09-20T03:59:55.322Z,8.82
2022-09-20T04:03:28.525Z,8.80
2022-09-20T04:06:34.849Z,8.77
2022-09-20T04:09:09.511Z,8.75
2022-09-20T04:12:08.405Z,8.71
2022-09-20T04:15:07.526Z,8.70
2022-09-20T04:18:03.841Z,8.68
2022-09-20T04:21:10.719Z,8.67
2022-09-20T04:23:41.976Z,8.65
2022-09-20T04:26:10.677Z,8.64
2022-09-20T04:28:52.547Z,8.62
2022-09-20T04:31:30.592Z,8.62
2022-09-20T04:34:02.199Z,8.62
2022-09-20T04:36:38.423Z,8.61
2022-09-20T04:39:24.255Z,8.61
2022-09-20T04:42:11.221Z,8.63
2022-09-20T04:45:08.202Z,8.65
2022-09-20T04:48:09.980Z,8.66
2022-09-20T04:51:00.171Z,8.68
2022-09-20T04:53:38.153Z,8.70
2022-09-20T04:56:55.203Z,8.73
2022-09-20T04:59:42.038Z,8.78
2022-09-20T05:02:35.507Z,8.83
2022-09-20T05:05:27.094Z,8.88
2022-09-20T05:08:17.522Z,8.92
2022-09-20T05:10:54.274Z,8.96
2022-09-20T05:13:38.965Z,8.98
2022-09-20T05:16:22.589Z,9.00
2022-09-20T05:19:28.794Z,9.02
2022-09-20T05:22:38.061Z,9.04
2022-09-20T05:25:40.922Z,9.08
2022-09-20T05:28:12.560Z,9.12
2022-09-20T05:31:08.560Z,9.18
2022-09-20T05:33:52.984Z,9.26
2022-09-20T05:36:50.370Z,9.34
2022-09-20T05:39:51.213Z,9.40
2022-09-20T05:42:29.390Z,9.48
2022-09-20T05:45:41.172Z,9.57
2022-09-20T05:48:24.723Z,9.67
2022-09-20T05:51:34.007Z,9.75
2022-09-20T05:54:16.365Z,9.83
2022-09-20T05:57:06.862Z,9.88
2022-09-20T06:00:01.207Z,9.93
2022-09-20T06:02:44.274Z,9.99
2022-09-20T06:05:17.411Z,10.06
2022-09-20T06:08:03.920Z,10.14
2022-09-20T06:10:56.203Z,10.23
2022-09-20T06:13:49.933Z,10.32
2022-09-20T06:16:44.757Z,10.40
2022-09-20T06:20:39.490Z,10.50
2022-09-20T06:23:10.450Z,10.53
2022-09-20T06:25:45.549Z,10.59
2022-09-20T06:28:35.158Z,10.65
2022-09-20T06:31:10.235Z,10.72
2022-09-20T06:34:04.059Z,10.77
2022-09-20T06:36:53.293Z,10.81
2022-09-20T06:39:59.155Z,10.86
2022-09-20T06:42:28.874Z,10.94
2022-09-20T06:44:57.230Z,11.03
2022-09-20T06:47:27.145Z,11.11
2022-09-20T06:49:56.818Z,11.24
2022-09-20T06:52:25.358Z,11.38
2022-09-20T06:54:56.375Z,11.47
2022-09-20T06:57:38.108Z,11.60
2022-09-20T07:00:10.545Z,11.76
2022-09-20T07:02:39.293Z,11.86
2022-09-20T07:05:11.873Z,11.95
2022-09-20T07:07:40.819Z,12.02
2022-09-20T07:10:09.318Z,12.06
2022-09-20T07:12:38.189Z,12.11
2022-09-20T07:15:07.653Z,12.20
2022-09-20T07:17:35.968Z,12.29
2022-09-20T07:20:05.095Z,12.39
2022-09-20T07:22:33.854Z,12.51
2022-09-20T07:25:02.603Z,12.65
2022-09-20T07:27:31.079Z,12.78
2022-09-20T07:29:59.632Z,12.85
2022-09-20T07:32:28.190Z,12.89
2022-09-20T07:34:56.635Z,12.93
2022-09-20T07:37:25.255Z,12.95
2022-09-20T07:39:53.472Z,12.97
2022-09-20T07:42:21.869Z,12.96
2022-09-20T07:44:50.956Z,12.98
2022-09-20T07:47:19.275Z,12.99
2022-09-20T07:49:47.861Z,12.97
2022-09-20T07:52:16.551Z,12.99
2022-09-20T07:54:46.153Z,13.02
2022-09-20T07:57:14.879Z,13.00
2022-09-20T07:59:43.627Z,13.01
2022-09-20T08:02:16.179Z,13.02
2022-09-20T08:04:44.631Z,13.00
2022-09-20T08:07:13.063Z,13.02
2022-09-20T08:09:41.696Z,13.09
2022-09-20T08:14:59.599Z,13.22
2022-09-20T08:17:28.664Z,13.30
2022-09-20T08:19:56.959Z,13.39
